sensor_id;sensor_type;location;lat;lon;timestamp;temperature;humidity
60353;DHT22;46196;52.970;6.954;2023-02-28T00:00:21;4.50;99.90
60353;DHT22;46196;52.970;6.954;2023-02-28T00:02:48;4.50;99.90
60353;DHT22;46196;52.970;6.954;2023-02-28T00:05:18;4.50;99.90
60353;DHT22;46196;52.970;6.954;2023-02-28T00:07:45;4.50;99.90
60353;DHT22;46196;52.970;6.954;2023-02-28T00:10:14;4.50;99.90
60353;DHT22;46196;52.970;6.954;2023-02-28T00:12:40;6.00;99.90
60353;DHT22;46196;52.970;6.954;2023-02-28T00:15:10;4.50;99.90
60353;DHT22;46196;52.970;6.954;2023-02-28T00:17:36;4.50;99.90
60353;DHT22;46196;52.970;6.954;2023-02-28T00:20:03;4.50;99.90
60353;DHT22;46196;52.970;6.954;2023-02-28T00:22:42;4.50;99.90
60353;DHT22;46196;52.970;6.954;2023-02-28T00:25:09;5.40;99.90
60353;DHT22;46196;52.970;6.954;2023-02-28T00:27:36;4.50;99.90
60353;DHT22;46196;52.970;6.954;2023-02-28T00:30:03;4.60;99.90
60353;DHT22;46196;52.970;6.954;2023-02-28T00:32:30;4.60;99.90
60353;DHT22;46196;52.970;6.954;2023-02-28T00:34:56;4.90;99.90
60353;DHT22;46196;52.970;6.954;2023-02-28T00:37:22;5.50;99.90
60353;DHT22;46196;52.970;6.954;2023-02-28T00:39:48;6.00;99.90
60353;DHT22;46196;52.970;6.954;2023-02-28T00:42:14;4.50;99.90
60353;DHT22;46196;52.970;6.954;2023-02-28T00:44:39;4.50;99.90
60353;DHT22;46196;52.970;6.954;2023-02-28T00:47:05;5.40;99.90
60353;DHT22;46196;52.970;6.954;2023-02-28T00:49:33;4.50;99.90
60353;DHT22;46196;52.970;6.954;2023-02-28T00:51:59;4.50;99.90
60353;DHT22;46196;52.970;6.954;2023-02-28T00:54:25;4.50;99.90
60353;DHT22;46196;52.970;6.954;2023-02-28T00:56:51;3.40;99.90
60353;DHT22;46196;52.970;6.954;2023-02-28T00:59:17;5.70;99.90
60353;DHT22;46196;52.970;6.954;2023-02-28T01:01:44;4.50;99.90
60353;DHT22;46196;52.970;6.954;2023-02-28T01:04:13;4.50;99.90
60353;DHT22;46196;52.970;6.954;2023-02-28T01:06:40;4.50;99.90
60353;DHT22;46196;52.970;6.954;2023-02-28T01:09:06;5.00;99.90
60353;DHT22;46196;52.970;6.954;2023-02-28T01:11:33;4.50;99.90
60353;DHT22;46196;52.970;6.954;2023-02-28T01:13:59;4.50;99.90
60353;DHT22;46196;52.970;6.954;2023-02-28T01:16:25;4.50;99.90
60353;DHT22;46196;52.970;6.954;2023-02-28T01:18:52;4.40;99.90
60353;DHT22;46196;52.970;6.954;2023-02-28T01:21:19;4.50;99.90
60353;DHT22;46196;52.970;6.954;2023-02-28T01:23:46;5.10;99.90
60353;DHT22;46196;52.970;6.954;2023-02-28T01:26:18;4.50;99.90
60353;DHT22;46196;52.970;6.954;2023-02-28T01:28:44;4.40;99.90
60353;DHT22;46196;52.970;6.954;2023-02-28T01:31:10;4.40;99.90
60353;DHT22;46196;52.970;6.954;2023-02-28T01:33:37;5.20;99.90
60353;DHT22;46196;52.970;6.954;2023-02-28T01:36:11;5.10;99.90
60353;DHT22;46196;52.970;6.954;2023-02-28T01:38:37;4.30;99.90
60353;DHT22;46196;52.970;6.954;2023-02-28T01:41:04;4.30;99.90
60353;DHT22;46196;52.970;6.954;2023-02-28T01:43:54;4.30;99.90
60353;DHT22;46196;52.970;6.954;2023-02-28T01:46:20;4.30;99.90
60353;DHT22;46196;52.970;6.954;2023-02-28T01:48:53;4.30;99.90
60353;DHT22;46196;52.970;6.954;2023-02-28T01:51:59;4.30;99.90
60353;DHT22;46196;52.970;6.954;2023-02-28T01:54:25;4.30;99.90
60353;DHT22;46196;52.970;6.954;2023-02-28T01:57:10;4.30;99.90
60353;DHT22;46196;52.970;6.954;2023-02-28T01:59:50;4.30;99.90
60353;DHT22;46196;52.970;6.954;2023-02-28T02:02:19;4.30;99.90
60353;DHT22;46196;52.970;6.954;2023-02-28T02:04:54;4.30;99.90
60353;DHT22;46196;52.970;6.954;2023-02-28T02:07:20;4.30;99.90
60353;DHT22;46196;52.970;6.954;2023-02-28T02:09:47;4.30;99.90
60353;DHT22;46196;52.970;6.954;2023-02-28T02:12:28;4.30;99.90
60353;DHT22;46196;52.970;6.954;2023-02-28T02:15:29;4.30;99.90
60353;DHT22;46196;52.970;6.954;2023-02-28T02:18:00;4.30;99.90
60353;DHT22;46196;52.970;6.954;2023-02-28T02:31:48;4.30;99.90
60353;DHT22;46196;52.970;6.954;2023-02-28T02:34:26;4.30;99.90
60353;DHT22;46196;52.970;6.954;2023-02-28T02:37:43;5.60;99.90
60353;DHT22;46196;52.970;6.954;2023-02-28T02:39:50;4.30;99.90
60353;DHT22;46196;52.970;6.954;2023-02-28T02:42:29;4.70;99.90
60353;DHT22;46196;52.970;6.954;2023-02-28T02:45:08;4.20;99.90
60353;DHT22;46196;52.970;6.954;2023-02-28T02:47:35;4.20;99.90
60353;DHT22;46196;52.970;6.954;2023-02-28T02:50:05;5.10;99.90
60353;DHT22;46196;52.970;6.954;2023-02-28T02:52:38;4.20;99.90
60353;DHT22;46196;52.970;6.954;2023-02-28T02:55:07;5.80;99.90
60353;DHT22;46196;52.970;6.954;2023-02-28T02:57:46;4.00;99.90
60353;DHT22;46196;52.970;6.954;2023-02-28T03:00:15;4.10;99.90
60353;DHT22;46196;52.970;6.954;2023-02-28T03:02:42;3.30;99.90
60353;DHT22;46196;52.970;6.954;2023-02-28T03:05:26;4.90;99.90
60353;DHT22;46196;52.970;6.954;2023-02-28T03:07:53;4.10;99.90
60353;DHT22;46196;52.970;6.954;2023-02-28T03:10:29;2.90;99.90
60353;DHT22;46196;52.970;6.954;2023-02-28T03:13:26;4.00;99.90
60353;DHT22;46196;52.970;6.954;2023-02-28T03:22:11;4.00;99.90
60353;DHT22;46196;52.970;6.954;2023-02-28T03:27:34;4.00;99.90
60353;DHT22;46196;52.970;6.954;2023-02-28T03:30:33;2.60;99.90
60353;DHT22;46196;52.970;6.954;2023-02-28T03:33:08;4.00;99.90
60353;DHT22;46196;52.970;6.954;2023-02-28T03:35:39;4.00;99.90
60353;DHT22;46196;52.970;6.954;2023-02-28T03:40:42;3.90;99.90
60353;DHT22;46196;52.970;6.954;2023-02-28T03:43:14;5.40;99.90
60353;DHT22;46196;52.970;6.954;2023-02-28T03:45:43;4.30;99.90
60353;DHT22;46196;52.970;6.954;2023-02-28T03:50:44;3.90;99.90
60353;DHT22;46196;52.970;6.954;2023-02-28T03:53:32;3.90;99.90
60353;DHT22;46196;52.970;6.954;2023-02-28T03:56:13;4.00;99.90
60353;DHT22;46196;52.970;6.954;2023-02-28T03:59:12;3.90;99.90
60353;DHT22;46196;52.970;6.954;2023-02-28T04:01:44;5.50;99.90
60353;DHT22;46196;52.970;6.954;2023-02-28T04:04:11;3.90;99.90
60353;DHT22;46196;52.970;6.954;2023-02-28T04:06:38;4.40;99.90
60353;DHT22;46196;52.970;6.954;2023-02-28T04:09:05;3.90;99.90
60353;DHT22;46196;52.970;6.954;2023-02-28T04:11:38;3.90;99.90
60353;DHT22;46196;52.970;6.954;2023-02-28T04:14:05;3.90;99.90
60353;DHT22;46196;52.970;6.954;2023-02-28T04:16:32;3.90;99.90
60353;DHT22;46196;52.970;6.954;2023-02-28T04:18:58;3.90;99.90
60353;DHT22;46196;52.970;6.954;2023-02-28T04:21:28;4.00;99.90
60353;DHT22;46196;52.970;6.954;2023-02-28T04:23:55;2.70;99.90
60353;DHT22;46196;52.970;6.954;2023-02-28T04:26:20;3.90;99.90
60353;DHT22;46196;52.970;6.954;2023-02-28T04:28:46;3.90;99.90
60353;DHT22;46196;52.970;6.954;2023-02-28T04:31:12;3.90;99.90
60353;DHT22;46196;52.970;6.954;2023-02-28T04:33:38;5.30;99.90
60353;DHT22;46196;52.970;6.954;2023-02-28T04:36:08;3.90;99.90
60353;DHT22;46196;52.970;6.954;2023-02-28T04:38:36;3.90;99.90
60353;DHT22;46196;52.970;6.954;2023-02-28T04:41:02;3.90;99.90
60353;DHT22;46196;52.970;6.954;2023-02-28T04:43:29;3.90;99.90
60353;DHT22;46196;52.970;6.954;2023-02-28T04:46:00;3.90;99.90
60353;DHT22;46196;52.970;6.954;2023-02-28T04:48:28;3.90;99.90
60353;DHT22;46196;52.970;6.954;2023-02-28T04:50:54;4.20;99.90
60353;DHT22;46196;52.970;6.954;2023-02-28T04:53:20;3.90;99.90
60353;DHT22;46196;52.970;6.954;2023-02-28T04:55:46;3.90;99.90
60353;DHT22;46196;52.970;6.954;2023-02-28T04:58:13;4.30;99.90
60353;DHT22;46196;52.970;6.954;2023-02-28T05:00:39;4.20;99.90
60353;DHT22;46196;52.970;6.954;2023-02-28T05:03:05;3.90;99.90
60353;DHT22;46196;52.970;6.954;2023-02-28T05:05:31;5.30;99.90
60353;DHT22;46196;52.970;6.954;2023-02-28T05:07:56;3.90;99.90
60353;DHT22;46196;52.970;6.954;2023-02-28T05:10:22;4.80;99.90
60353;DHT22;46196;52.970;6.954;2023-02-28T05:12:49;4.80;99.90
60353;DHT22;46196;52.970;6.954;2023-02-28T05:15:16;3.90;99.90
60353;DHT22;46196;52.970;6.954;2023-02-28T05:17:42;3.90;99.90
60353;DHT22;46196;52.970;6.954;2023-02-28T05:20:09;3.90;99.90
60353;DHT22;46196;52.970;6.954;2023-02-28T05:22:41;3.80;99.90
60353;DHT22;46196;52.970;6.954;2023-02-28T05:25:11;3.90;99.90
60353;DHT22;46196;52.970;6.954;2023-02-28T05:27:38;4.80;99.90
60353;DHT22;46196;52.970;6.954;2023-02-28T05:30:05;3.80;99.90
60353;DHT22;46196;52.970;6.954;2023-02-28T05:32:31;3.80;99.90
60353;DHT22;46196;52.970;6.954;2023-02-28T05:34:57;3.80;99.90
60353;DHT22;46196;52.970;6.954;2023-02-28T05:37:23;3.80;99.90
60353;DHT22;46196;52.970;6.954;2023-02-28T05:39:49;5.40;99.90
60353;DHT22;46196;52.970;6.954;2023-02-28T05:42:14;3.80;99.90
60353;DHT22;46196;52.970;6.954;2023-02-28T05:44:40;3.80;99.90
60353;DHT22;46196;52.970;6.954;2023-02-28T05:47:06;3.70;99.90
60353;DHT22;46196;52.970;6.954;2023-02-28T05:49:31;4.50;99.90
60353;DHT22;46196;52.970;6.954;2023-02-28T05:51:57;3.70;99.90
60353;DHT22;46196;52.970;6.954;2023-02-28T05:54:23;5.00;99.90
60353;DHT22;46196;52.970;6.954;2023-02-28T05:56:48;4.10;99.90
60353;DHT22;46196;52.970;6.954;2023-02-28T05:59:14;3.80;99.90
60353;DHT22;46196;52.970;6.954;2023-02-28T06:01:45;3.80;99.90
60353;DHT22;46196;52.970;6.954;2023-02-28T06:04:15;3.80;99.90
60353;DHT22;46196;52.970;6.954;2023-02-28T06:06:49;3.80;99.90
60353;DHT22;46196;52.970;6.954;2023-02-28T06:09:16;3.80;99.90
60353;DHT22;46196;52.970;6.954;2023-02-28T06:11:42;3.70;99.90
60353;DHT22;46196;52.970;6.954;2023-02-28T06:14:09;4.10;99.90
60353;DHT22;46196;52.970;6.954;2023-02-28T06:16:39;3.70;99.90
60353;DHT22;46196;52.970;6.954;2023-02-28T06:19:05;3.70;99.90
60353;DHT22;46196;52.970;6.954;2023-02-28T06:21:31;5.00;99.90
60353;DHT22;46196;52.970;6.954;2023-02-28T06:23:58;4.20;99.90
60353;DHT22;46196;52.970;6.954;2023-02-28T06:26:24;3.70;99.90
60353;DHT22;46196;52.970;6.954;2023-02-28T06:28:50;5.30;99.90
60353;DHT22;46196;52.970;6.954;2023-02-28T06:31:17;3.70;99.90
60353;DHT22;46196;52.970;6.954;2023-02-28T06:33:45;5.00;99.90
60353;DHT22;46196;52.970;6.954;2023-02-28T06:36:12;3.60;99.90
60353;DHT22;46196;52.970;6.954;2023-02-28T06:38:39;4.50;99.90
60353;DHT22;46196;52.970;6.954;2023-02-28T06:41:05;4.90;99.90
60353;DHT22;46196;52.970;6.954;2023-02-28T06:43:34;5.00;99.90
60353;DHT22;46196;52.970;6.954;2023-02-28T06:46:02;4.90;99.90
60353;DHT22;46196;52.970;6.954;2023-02-28T06:48:28;4.40;99.90
60353;DHT22;46196;52.970;6.954;2023-02-28T06:51:06;3.60;99.90
60353;DHT22;46196;52.970;6.954;2023-02-28T06:53:33;3.70;99.90
60353;DHT22;46196;52.970;6.954;2023-02-28T06:55:58;3.70;99.90
60353;DHT22;46196;52.970;6.954;2023-02-28T06:58:24;3.70;99.90
60353;DHT22;46196;52.970;6.954;2023-02-28T07:00:51;3.70;99.90
60353;DHT22;46196;52.970;6.954;2023-02-28T07:03:18;3.70;99.90
60353;DHT22;46196;52.970;6.954;2023-02-28T07:05:44;3.80;99.90
60353;DHT22;46196;52.970;6.954;2023-02-28T07:08:10;3.80;99.90
60353;DHT22;46196;52.970;6.954;2023-02-28T07:10:39;4.90;99.90
60353;DHT22;46196;52.970;6.954;2023-02-28T07:13:06;3.90;99.90
60353;DHT22;46196;52.970;6.954;2023-02-28T07:15:32;3.90;99.90
60353;DHT22;46196;52.970;6.954;2023-02-28T07:17:58;4.80;99.90
60353;DHT22;46196;52.970;6.954;2023-02-28T07:20:24;4.00;99.90
60353;DHT22;46196;52.970;6.954;2023-02-28T07:22:51;4.00;99.90
60353;DHT22;46196;52.970;6.954;2023-02-28T07:25:28;4.50;99.90
60353;DHT22;46196;52.970;6.954;2023-02-28T07:27:55;4.50;99.90
60353;DHT22;46196;52.970;6.954;2023-02-28T07:30:21;4.10;99.90
60353;DHT22;46196;52.970;6.954;2023-02-28T07:32:47;5.00;99.90
60353;DHT22;46196;52.970;6.954;2023-02-28T07:35:13;5.50;99.90
60353;DHT22;46196;52.970;6.954;2023-02-28T07:37:41;4.20;99.90
60353;DHT22;46196;52.970;6.954;2023-02-28T07:40:10;4.30;99.90
60353;DHT22;46196;52.970;6.954;2023-02-28T07:42:41;4.40;99.90
60353;DHT22;46196;52.970;6.954;2023-02-28T07:45:08;4.40;99.90
60353;DHT22;46196;52.970;6.954;2023-02-28T07:47:37;4.40;99.90
60353;DHT22;46196;52.970;6.954;2023-02-28T07:50:03;5.60;99.90
60353;DHT22;46196;52.970;6.954;2023-02-28T07:52:29;4.50;99.90
60353;DHT22;46196;52.970;6.954;2023-02-28T07:54:55;4.60;99.90
60353;DHT22;46196;52.970;6.954;2023-02-28T07:57:20;6.30;99.90
60353;DHT22;46196;52.970;6.954;2023-02-28T07:59:46;4.80;99.90
60353;DHT22;46196;52.970;6.954;2023-02-28T08:02:17;4.80;99.90
60353;DHT22;46196;52.970;6.954;2023-02-28T08:04:43;4.90;99.90
60353;DHT22;46196;52.970;6.954;2023-02-28T08:07:10;4.90;99.90
60353;DHT22;46196;52.970;6.954;2023-02-28T08:09:42;5.00;99.90
60353;DHT22;46196;52.970;6.954;2023-02-28T08:12:08;5.10;99.90
60353;DHT22;46196;52.970;6.954;2023-02-28T08:14:34;5.10;99.90
60353;DHT22;46196;52.970;6.954;2023-02-28T08:17:00;5.10;99.90
60353;DHT22;46196;52.970;6.954;2023-02-28T08:19:26;5.20;99.90
60353;DHT22;46196;52.970;6.954;2023-02-28T08:21:52;5.30;99.90
60353;DHT22;46196;52.970;6.954;2023-02-28T08:24:18;6.60;99.90
60353;DHT22;46196;52.970;6.954;2023-02-28T08:26:44;5.50;99.90
60353;DHT22;46196;52.970;6.954;2023-02-28T08:29:09;5.50;99.90
60353;DHT22;46196;52.970;6.954;2023-02-28T08:31:35;5.60;99.90
60353;DHT22;46196;52.970;6.954;2023-02-28T08:34:08;6.70;99.90
60353;DHT22;46196;52.970;6.954;2023-02-28T08:36:34;5.70;99.90
60353;DHT22;46196;52.970;6.954;2023-02-28T08:39:00;6.20;99.90
60353;DHT22;46196;52.970;6.954;2023-02-28T08:41:26;6.90;99.90
60353;DHT22;46196;52.970;6.954;2023-02-28T08:43:52;8.00;99.90
60353;DHT22;46196;52.970;6.954;2023-02-28T08:46:19;9.20;99.90
60353;DHT22;46196;52.970;6.954;2023-02-28T08:48:45;10.30;99.90
60353;DHT22;46196;52.970;6.954;2023-02-28T08:51:15;11.20;99.90
60353;DHT22;46196;52.970;6.954;2023-02-28T08:56:15;12.00;99.90
60353;DHT22;46196;52.970;6.954;2023-02-28T08:58:43;13.30;99.90
60353;DHT22;46196;52.970;6.954;2023-02-28T09:01:20;13.80;99.90
60353;DHT22;46196;52.970;6.954;2023-02-28T09:06:15;14.20;98.40
60353;DHT22;46196;52.970;6.954;2023-02-28T09:11:08;14.80;99.50
60353;DHT22;46196;52.970;6.954;2023-02-28T09:40:30;15.30;96.80
60353;DHT22;46196;52.970;6.954;2023-02-28T09:42:57;11.00;99.90
60353;DHT22;46196;52.970;6.954;2023-02-28T09:45:39;10.50;99.90
60353;DHT22;46196;52.970;6.954;2023-02-28T09:48:16;10.30;99.90
60353;DHT22;46196;52.970;6.954;2023-02-28T09:50:49;10.20;99.90
60353;DHT22;46196;52.970;6.954;2023-02-28T09:53:31;10.10;99.90
60353;DHT22;46196;52.970;6.954;2023-02-28T09:56:22;10.10;99.90
60353;DHT22;46196;52.970;6.954;2023-02-28T09:58:53;10.20;99.90
60353;DHT22;46196;52.970;6.954;2023-02-28T10:06:51;10.10;99.90
60353;DHT22;46196;52.970;6.954;2023-02-28T10:09:32;10.10;99.90
60353;DHT22;46196;52.970;6.954;2023-02-28T10:12:04;10.10;99.90
60353;DHT22;46196;52.970;6.954;2023-02-28T10:14:33;10.00;99.90
60353;DHT22;46196;52.970;6.954;2023-02-28T10:17:13;10.00;99.90
60353;DHT22;46196;52.970;6.954;2023-02-28T10:23:20;9.90;99.90
60353;DHT22;46196;52.970;6.954;2023-02-28T10:25:55;10.00;99.90
60353;DHT22;46196;52.970;6.954;2023-02-28T10:28:23;10.00;99.90
60353;DHT22;46196;52.970;6.954;2023-02-28T10:30:52;10.10;99.90
60353;DHT22;46196;52.970;6.954;2023-02-28T10:33:28;10.00;99.90
60353;DHT22;46196;52.970;6.954;2023-02-28T10:35:55;9.90;98.10
60353;DHT22;46196;52.970;6.954;2023-02-28T10:38:32;9.60;99.90
60353;DHT22;46196;52.970;6.954;2023-02-28T10:41:11;9.50;98.90
60353;DHT22;46196;52.970;6.954;2023-02-28T10:43:39;9.50;99.90
60353;DHT22;46196;52.970;6.954;2023-02-28T10:48:44;9.50;99.90
60353;DHT22;46196;52.970;6.954;2023-02-28T10:51:15;9.50;99.90
60353;DHT22;46196;52.970;6.954;2023-02-28T10:53:50;9.60;99.90
60353;DHT22;46196;52.970;6.954;2023-02-28T10:56:21;9.70;99.90
60353;DHT22;46196;52.970;6.954;2023-02-28T11:03:59;9.80;99.90
60353;DHT22;46196;52.970;6.954;2023-02-28T11:06:33;9.90;99.90
60353;DHT22;46196;52.970;6.954;2023-02-28T11:09:03;10.00;99.90
60353;DHT22;46196;52.970;6.954;2023-02-28T11:11:40;10.10;98.80
60353;DHT22;46196;52.970;6.954;2023-02-28T11:14:20;10.00;99.00
60353;DHT22;46196;52.970;6.954;2023-02-28T11:16:47;9.90;98.00
60353;DHT22;46196;52.970;6.954;2023-02-28T11:19:23;9.90;99.90
60353;DHT22;46196;52.970;6.954;2023-02-28T11:22:02;10.00;99.90
60353;DHT22;46196;52.970;6.954;2023-02-28T11:26:57;9.60;99.50
60353;DHT22;46196;52.970;6.954;2023-02-28T11:29:29;9.40;99.90
60353;DHT22;46196;52.970;6.954;2023-02-28T11:34:37;9.00;99.90
60353;DHT22;46196;52.970;6.954;2023-02-28T11:37:05;8.80;99.90
60353;DHT22;46196;52.970;6.954;2023-02-28T11:39:32;8.70;99.90
60353;DHT22;46196;52.970;6.954;2023-02-28T11:42:11;8.60;99.90
60353;DHT22;46196;52.970;6.954;2023-02-28T11:47:38;8.30;99.90
60353;DHT22;46196;52.970;6.954;2023-02-28T11:58:44;7.90;99.90
60353;DHT22;46196;52.970;6.954;2023-02-28T12:01:34;7.80;99.90
60353;DHT22;46196;52.970;6.954;2023-02-28T12:04:38;7.70;99.90
60353;DHT22;46196;52.970;6.954;2023-02-28T12:18:25;7.70;99.90
60353;DHT22;46196;52.970;6.954;2023-02-28T12:21:31;7.90;99.90
60353;DHT22;46196;52.970;6.954;2023-02-28T12:26:41;8.60;99.90
60353;DHT22;46196;52.970;6.954;2023-02-28T12:37:17;9.80;92.60
60353;DHT22;46196;52.970;6.954;2023-02-28T12:39:47;10.00;95.90
60353;DHT22;46196;52.970;6.954;2023-02-28T12:42:22;10.40;98.60
60353;DHT22;46196;52.970;6.954;2023-02-28T12:45:01;11.00;95.60
60353;DHT22;46196;52.970;6.954;2023-02-28T12:47:29;11.50;96.10
60353;DHT22;46196;52.970;6.954;2023-02-28T12:49:59;11.90;90.30
60353;DHT22;46196;52.970;6.954;2023-02-28T13:09:14;11.50;63.80
60353;DHT22;46196;52.970;6.954;2023-02-28T13:14:22;10.90;71.30
60353;DHT22;46196;52.970;6.954;2023-02-28T13:19:17;11.20;72.30
60353;DHT22;46196;52.970;6.954;2023-02-28T13:21:45;11.60;76.70
60353;DHT22;46196;52.970;6.954;2023-02-28T13:24:43;12.10;68.00
60353;DHT22;46196;52.970;6.954;2023-02-28T13:29:43;12.80;66.10
60353;DHT22;46196;52.970;6.954;2023-02-28T13:34:37;12.50;61.00
60353;DHT22;46196;52.970;6.954;2023-02-28T13:37:42;12.20;56.70
60353;DHT22;46196;52.970;6.954;2023-02-28T13:40:32;12.00;58.70
60353;DHT22;46196;52.970;6.954;2023-02-28T13:43:03;11.90;63.00
60353;DHT22;46196;52.970;6.954;2023-02-28T13:45:29;12.00;60.70
60353;DHT22;46196;52.970;6.954;2023-02-28T13:48:00;12.00;58.20
60353;DHT22;46196;52.970;6.954;2023-02-28T13:50:37;12.00;57.60
60353;DHT22;46196;52.970;6.954;2023-02-28T14:04:45;11.80;57.20
60353;DHT22;46196;52.970;6.954;2023-02-28T14:07:23;11.70;56.00
60353;DHT22;46196;52.970;6.954;2023-02-28T14:10:03;11.70;58.50
60353;DHT22;46196;52.970;6.954;2023-02-28T14:12:53;11.60;58.00
60353;DHT22;46196;52.970;6.954;2023-02-28T14:17:56;11.70;62.30
60353;DHT22;46196;52.970;6.954;2023-02-28T14:20:27;11.90;63.50
60353;DHT22;46196;52.970;6.954;2023-02-28T14:23:07;11.90;61.10
60353;DHT22;46196;52.970;6.954;2023-02-28T14:25:58;12.00;63.00
60353;DHT22;46196;52.970;6.954;2023-02-28T14:28:56;12.20;63.30
60353;DHT22;46196;52.970;6.954;2023-02-28T14:31:37;12.30;62.40
60353;DHT22;46196;52.970;6.954;2023-02-28T14:36:50;12.20;61.80
60353;DHT22;46196;52.970;6.954;2023-02-28T14:39:22;12.10;62.90
60353;DHT22;46196;52.970;6.954;2023-02-28T14:41:50;12.00;60.30
60353;DHT22;46196;52.970;6.954;2023-02-28T14:44:24;11.80;60.70
60353;DHT22;46196;52.970;6.954;2023-02-28T14:47:01;11.80;59.00
60353;DHT22;46196;52.970;6.954;2023-02-28T14:49:37;11.80;62.40
60353;DHT22;46196;52.970;6.954;2023-02-28T14:52:18;11.80;59.80
60353;DHT22;46196;52.970;6.954;2023-02-28T14:54:45;11.80;56.20
60353;DHT22;46196;52.970;6.954;2023-02-28T14:57:27;11.80;58.30
60353;DHT22;46196;52.970;6.954;2023-02-28T15:00:15;11.80;55.60
60353;DHT22;46196;52.970;6.954;2023-02-28T15:02:42;11.60;54.00
60353;DHT22;46196;52.970;6.954;2023-02-28T15:07:44;11.30;58.40
60353;DHT22;46196;52.970;6.954;2023-02-28T15:10:18;11.30;59.60
60353;DHT22;46196;52.970;6.954;2023-02-28T15:18:06;11.30;61.20
60353;DHT22;46196;52.970;6.954;2023-02-28T15:20:33;11.20;62.20
60353;DHT22;46196;52.970;6.954;2023-02-28T15:23:00;11.30;64.40
60353;DHT22;46196;52.970;6.954;2023-02-28T15:25:27;11.30;61.30
60353;DHT22;46196;52.970;6.954;2023-02-28T15:27:55;11.30;63.20
60353;DHT22;46196;52.970;6.954;2023-02-28T15:30:28;11.30;62.50
60353;DHT22;46196;52.970;6.954;2023-02-28T15:33:23;11.30;60.40
60353;DHT22;46196;52.970;6.954;2023-02-28T15:35:49;11.20;60.30
60353;DHT22;46196;52.970;6.954;2023-02-28T15:38:24;11.10;62.40
60353;DHT22;46196;52.970;6.954;2023-02-28T15:40:56;11.20;62.40
60353;DHT22;46196;52.970;6.954;2023-02-28T15:43:33;11.20;61.90
60353;DHT22;46196;52.970;6.954;2023-02-28T15:46:04;11.00;60.40
60353;DHT22;46196;52.970;6.954;2023-02-28T15:48:38;10.90;61.20
60353;DHT22;46196;52.970;6.954;2023-02-28T15:51:16;10.80;61.00
60353;DHT22;46196;52.970;6.954;2023-02-28T15:53:59;10.60;63.30
60353;DHT22;46196;52.970;6.954;2023-02-28T15:56:29;10.50;59.80
60353;DHT22;46196;52.970;6.954;2023-02-28T15:58:59;10.30;61.00
60353;DHT22;46196;52.970;6.954;2023-02-28T16:01:28;10.30;61.70
60353;DHT22;46196;52.970;6.954;2023-02-28T16:04:01;10.20;63.00
60353;DHT22;46196;52.970;6.954;2023-02-28T16:06:34;10.10;65.90
60353;DHT22;46196;52.970;6.954;2023-02-28T16:09:00;10.00;62.80
60353;DHT22;46196;52.970;6.954;2023-02-28T16:11:26;9.90;66.50
60353;DHT22;46196;52.970;6.954;2023-02-28T16:13:52;9.70;69.90
60353;DHT22;46196;52.970;6.954;2023-02-28T16:16:23;9.50;68.80
60353;DHT22;46196;52.970;6.954;2023-02-28T16:18:49;9.40;69.60
60353;DHT22;46196;52.970;6.954;2023-02-28T16:21:16;9.20;72.00
60353;DHT22;46196;52.970;6.954;2023-02-28T16:23:41;9.00;69.20
60353;DHT22;46196;52.970;6.954;2023-02-28T16:26:08;8.90;70.80
60353;DHT22;46196;52.970;6.954;2023-02-28T16:28:36;8.70;75.50
60353;DHT22;46196;52.970;6.954;2023-02-28T16:31:05;8.60;81.00
60353;DHT22;46196;52.970;6.954;2023-02-28T16:33:31;8.60;83.80
60353;DHT22;46196;52.970;6.954;2023-02-28T16:35:58;8.50;85.90
60353;DHT22;46196;52.970;6.954;2023-02-28T16:38:24;8.40;88.00
60353;DHT22;46196;52.970;6.954;2023-02-28T16:40:59;8.30;90.50
60353;DHT22;46196;52.970;6.954;2023-02-28T16:43:26;8.20;90.90
60353;DHT22;46196;52.970;6.954;2023-02-28T16:45:56;8.00;91.80
60353;DHT22;46196;52.970;6.954;2023-02-28T16:48:25;7.90;92.50
60353;DHT22;46196;52.970;6.954;2023-02-28T16:50:51;7.90;93.50
60353;DHT22;46196;52.970;6.954;2023-02-28T16:53:17;7.70;93.90
60353;DHT22;46196;52.970;6.954;2023-02-28T16:55:43;7.60;94.10
60353;DHT22;46196;52.970;6.954;2023-02-28T16:58:14;7.50;93.80
60353;DHT22;46196;52.970;6.954;2023-02-28T17:00:40;7.40;92.80
60353;DHT22;46196;52.970;6.954;2023-02-28T17:03:24;7.30;92.50
60353;DHT22;46196;52.970;6.954;2023-02-28T17:05:50;7.20;92.40
60353;DHT22;46196;52.970;6.954;2023-02-28T17:08:16;7.00;92.50
60353;DHT22;46196;52.970;6.954;2023-02-28T17:10:42;7.10;94.00
60353;DHT22;46196;52.970;6.954;2023-02-28T17:13:08;6.90;93.60
60353;DHT22;46196;52.970;6.954;2023-02-28T17:15:35;6.80;94.20
60353;DHT22;46196;52.970;6.954;2023-02-28T17:18:01;6.70;94.40
60353;DHT22;46196;52.970;6.954;2023-02-28T17:20:27;6.90;95.20
60353;DHT22;46196;52.970;6.954;2023-02-28T17:22:53;6.80;96.00
60353;DHT22;46196;52.970;6.954;2023-02-28T17:25:20;6.50;96.20
60353;DHT22;46196;52.970;6.954;2023-02-28T17:27:46;6.40;96.30
60353;DHT22;46196;52.970;6.954;2023-02-28T17:30:19;6.30;96.30
60353;DHT22;46196;52.970;6.954;2023-02-28T17:32:45;6.20;96.80
60353;DHT22;46196;52.970;6.954;2023-02-28T17:35:12;6.10;97.20
60353;DHT22;46196;52.970;6.954;2023-02-28T17:37:38;6.00;98.00
60353;DHT22;46196;52.970;6.954;2023-02-28T17:40:04;6.00;98.80
60353;DHT22;46196;52.970;6.954;2023-02-28T17:42:30;5.90;99.50
60353;DHT22;46196;52.970;6.954;2023-02-28T17:44:56;5.80;99.90
60353;DHT22;46196;52.970;6.954;2023-02-28T17:47:22;5.70;99.90
60353;DHT22;46196;52.970;6.954;2023-02-28T17:49:48;5.60;99.90
60353;DHT22;46196;52.970;6.954;2023-02-28T17:52:13;5.40;99.90
60353;DHT22;46196;52.970;6.954;2023-02-28T17:54:39;5.30;99.90
60353;DHT22;46196;52.970;6.954;2023-02-28T17:57:05;5.20;99.90
60353;DHT22;46196;52.970;6.954;2023-02-28T17:59:31;5.10;99.90
60353;DHT22;46196;52.970;6.954;2023-02-28T18:02:02;6.00;99.90
60353;DHT22;46196;52.970;6.954;2023-02-28T18:04:29;5.00;99.90
60353;DHT22;46196;52.970;6.954;2023-02-28T18:06:55;5.00;99.90
60353;DHT22;46196;52.970;6.954;2023-02-28T18:09:26;4.90;99.90
60353;DHT22;46196;52.970;6.954;2023-02-28T18:11:53;4.80;99.90
60353;DHT22;46196;52.970;6.954;2023-02-28T18:14:21;4.80;99.90
60353;DHT22;46196;52.970;6.954;2023-02-28T18:16:49;4.70;99.90
60353;DHT22;46196;52.970;6.954;2023-02-28T18:19:15;5.30;99.90
60353;DHT22;46196;52.970;6.954;2023-02-28T18:21:42;4.60;99.90
60353;DHT22;46196;52.970;6.954;2023-02-28T18:24:09;5.40;99.90
60353;DHT22;46196;52.970;6.954;2023-02-28T18:26:36;4.50;99.90
60353;DHT22;46196;52.970;6.954;2023-02-28T18:29:02;5.80;99.90
60353;DHT22;46196;52.970;6.954;2023-02-28T18:31:28;5.40;99.90
60353;DHT22;46196;52.970;6.954;2023-02-28T18:33:53;4.30;99.90
60353;DHT22;46196;52.970;6.954;2023-02-28T18:36:20;4.30;99.90
60353;DHT22;46196;52.970;6.954;2023-02-28T18:38:50;4.30;99.90
60353;DHT22;46196;52.970;6.954;2023-02-28T18:41:16;4.20;99.90
60353;DHT22;46196;52.970;6.954;2023-02-28T18:43:42;4.10;99.90
60353;DHT22;46196;52.970;6.954;2023-02-28T18:46:14;4.10;99.90
60353;DHT22;46196;52.970;6.954;2023-02-28T18:48:40;4.00;99.90